Time;durP1;ratioP1;P1;durP2;ratioP2;P2;SDS_P1;SDS_P2;PMS_P1;PMS_P2;Temp;Humidity;BMP_temperature;BMP_pressure;BME280_temperature;BME280_humidity;BME280_pressure;Samples;Min_cycle;Max_cycle;Signal;HPM_P1;HPM_P2
2024/01/26 00:01:38;;;;;;;11.07;2.85;;;12.50;99.90;;;;;;5080865;28;20032;-87
2024/01/26 00:04:04;;;;;;;10.23;3.38;;;12.60;99.90;;;;;;5088995;28;20093;-87
2024/01/26 00:06:30;;;;;;;16.27;3.63;;;12.70;99.90;;;;;;5083928;28;20430;-87
2024/01/26 00:08:55;;;;;;;16.80;4.50;;;12.50;99.90;;;;;;5074870;28;20435;-87
2024/01/26 00:11:21;;;;;;;14.32;3.85;;;12.60;99.90;;;;;;5079148;28;20485;-86
2024/01/26 00:13:47;;;;;;;14.65;3.95;;;12.50;99.90;;;;;;5075570;28;20485;-86
2024/01/26 00:16:12;;;;;;;16.58;3.50;;;12.50;99.90;;;;;;5071887;28;20025;-87
2024/01/26 00:18:41;;;;;;;17.60;3.50;;;12.50;99.90;;;;;;5071842;28;20028;-86
2024/01/26 00:21:07;;;;;;;11.10;3.47;;;12.80;99.90;;;;;;5070153;28;20033;-86
2024/01/26 00:23:34;;;;;;;16.40;3.47;;;12.70;99.90;;;;;;5053600;28;20041;-86
2024/01/26 00:25:59;;;;;;;13.95;3.67;;;12.50;99.90;;;;;;5069026;28;20052;-86
2024/01/26 00:28:25;;;;;;;12.07;3.20;;;12.40;99.90;;;;;;5071206;28;20060;-86
2024/01/26 00:30:50;;;;;;;15.82;3.33;;;12.80;99.90;;;;;;5071756;28;20035;-87
2024/01/26 00:33:16;;;;;;;13.73;3.45;;;12.40;99.90;;;;;;5070135;28;20090;-85
2024/01/26 00:35:42;;;;;;;16.48;4.07;;;12.40;99.90;;;;;;5071313;28;20029;-88
2024/01/26 00:38:08;;;;;;;13.45;3.65;;;12.30;99.90;;;;;;5071394;28;20100;-86
2024/01/26 00:40:34;;;;;;;14.50;3.50;;;12.60;99.90;;;;;;5052143;28;20481;-87
2024/01/26 00:43:00;;;;;;;10.45;3.13;;;12.70;99.90;;;;;;5073697;28;20035;-87
2024/01/26 00:45:25;;;;;;;14.10;3.33;;;12.40;99.90;;;;;;5074604;28;20036;-87
2024/01/26 00:47:51;;;;;;;14.43;3.10;;;12.60;99.90;;;;;;5069299;28;20544;-86
2024/01/26 00:50:16;;;;;;;17.48;3.28;;;12.50;99.90;;;;;;5071357;28;20025;-86
2024/01/26 00:52:42;;;;;;;17.83;3.67;;;12.60;99.90;;;;;;5071007;28;20037;-87
2024/01/26 00:55:08;;;;;;;10.65;2.80;;;12.30;99.90;;;;;;5071370;28;20028;-85
2024/01/26 00:57:34;;;;;;;16.17;3.50;;;12.60;99.90;;;;;;5052349;28;20485;-86
2024/01/26 00:59:59;;;;;;;18.00;3.90;;;12.00;99.90;;;;;;5050867;28;20117;-87
2024/01/26 01:02:25;;;;;;;14.68;3.55;;;11.90;99.90;;;;;;5066820;28;20040;-87
2024/01/26 01:04:51;;;;;;;23.30;4.60;;;12.40;99.90;;;;;;5071161;28;20024;-86
2024/01/26 01:07:17;;;;;;;9.85;3.22;;;12.40;99.90;;;;;;5069605;28;20035;-88
2024/01/26 01:09:42;;;;;;;17.80;3.70;;;12.90;99.90;;;;;;5070706;28;20504;-87
2024/01/26 01:12:08;;;;;;;14.50;3.70;;;12.40;99.90;;;;;;5069335;28;20093;-86
2024/01/26 01:14:36;;;;;;;14.38;3.22;;;12.40;99.90;;;;;;5070342;28;20396;-87
2024/01/26 01:17:04;;;;;;;22.17;3.88;;;12.40;99.90;;;;;;5070074;28;20539;-86
2024/01/26 01:19:29;;;;;;;19.03;3.53;;;12.40;99.90;;;;;;5069452;28;20504;-87
2024/01/26 01:21:56;;;;;;;18.17;3.83;;;12.30;99.90;;;;;;5068872;28;20348;-86
2024/01/26 01:24:22;;;;;;;17.08;3.33;;;12.40;99.90;;;;;;5069662;28;20058;-87
2024/01/26 01:26:47;;;;;;;10.35;3.50;;;;;;;;;;5069277;28;20028;-86
2024/01/26 01:29:13;;;;;;;20.75;4.47;;;12.50;99.90;;;;;;5070265;28;20117;-87
2024/01/26 01:31:39;;;;;;;14.10;3.65;;;12.50;99.90;;;;;;5068535;28;20017;-87
2024/01/26 01:34:05;;;;;;;14.23;3.53;;;12.40;99.90;;;;;;5069829;28;20568;-87
2024/01/26 01:36:31;;;;;;;14.90;3.70;;;12.40;99.90;;;;;;5068557;28;20114;-87
2024/01/26 01:38:56;;;;;;;15.63;4.43;;;12.40;99.90;;;;;;5070277;28;20417;-87
2024/01/26 01:41:22;;;;;;;15.07;3.92;;;12.40;99.90;;;;;;5074118;28;20418;-86
2024/01/26 01:43:55;;;;;;;16.40;3.90;;;12.40;99.90;;;;;;5089415;28;20396;-86
2024/01/26 01:46:21;;;;;;;16.40;3.42;;;12.80;99.90;;;;;;5090439;28;20066;-86
2024/01/26 01:48:48;;;;;;;22.50;4.47;;;12.70;99.90;;;;;;5089924;28;20032;-87
2024/01/26 01:51:14;;;;;;;18.45;3.28;;;13.00;99.90;;;;;;5049012;28;20388;-87
2024/01/26 01:53:40;;;;;;;14.60;4.00;;;13.00;99.90;;;;;;5049908;28;20029;-86
2024/01/26 01:56:10;;;;;;;13.90;3.22;;;12.40;99.90;;;;;;5050896;28;20028;-86
2024/01/26 01:58:38;;;;;;;16.73;3.70;;;12.50;99.90;;;;;;5065930;28;20033;-86
2024/01/26 02:01:04;;;;;;;19.85;3.90;;;12.50;99.90;;;;;;5070023;28;20481;-86
2024/01/26 02:03:30;;;;;;;13.02;3.95;;;12.70;99.90;;;;;;5067751;28;20033;-87
2024/01/26 02:05:56;;;;;;;13.15;3.45;;;12.90;99.90;;;;;;5067926;28;20111;-86
2024/01/26 02:08:22;;;;;;;10.68;4.10;;;;;;;;;;5069670;28;20082;-87
2024/01/26 02:10:48;;;;;;;17.38;3.50;;;12.60;99.90;;;;;;5069929;28;20031;-86
2024/01/26 02:13:13;;;;;;;11.82;3.17;;;12.60;99.90;;;;;;5068246;28;20123;-86
2024/01/26 02:15:39;;;;;;;16.65;3.67;;;12.60;99.90;;;;;;5068818;28;20380;-87
2024/01/26 02:18:05;;;;;;;19.27;3.90;;;13.30;99.90;;;;;;5070343;28;20025;-85
2024/01/26 02:20:31;;;;;;;19.98;3.70;;;12.50;99.90;;;;;;5068490;28;20430;-86
2024/01/26 02:22:57;;;;;;;17.92;4.18;;;12.50;99.90;;;;;;5069497;28;20036;-86
2024/01/26 02:25:22;;;;;;;16.35;3.65;;;12.80;99.90;;;;;;5068302;28;20388;-87
2024/01/26 02:27:52;;;;;;;18.77;4.10;;;12.50;99.90;;;;;;5068854;28;20032;-87
2024/01/26 02:30:17;;;;;;;17.35;3.72;;;12.90;99.90;;;;;;5049309;28;20032;-86
2024/01/26 02:32:43;;;;;;;14.77;3.70;;;12.80;99.90;;;;;;5052433;28;20028;-87
2024/01/26 02:35:10;;;;;;;13.30;3.65;;;13.20;99.90;;;;;;5069779;28;20082;-87
2024/01/26 02:37:36;;;;;;;22.13;4.13;;;;;;;;;;5068406;28;20142;-85
2024/01/26 02:40:02;;;;;;;23.42;4.13;;;12.70;99.90;;;;;;5069995;28;20033;-87
2024/01/26 02:42:28;;;;;;;23.35;3.97;;;;;;;;;;5088390;28;20058;-87
2024/01/26 02:44:54;;;;;;;13.07;3.58;;;;;;;;;;5088673;28;20388;-88
2024/01/26 02:47:20;;;;;;;16.45;3.72;;;12.70;99.90;;;;;;5069221;28;20028;-86
2024/01/26 02:49:45;;;;;;;15.35;3.60;;;13.00;99.90;;;;;;5069521;28;20107;-87
2024/01/26 02:52:11;;;;;;;20.20;4.05;;;12.60;99.90;;;;;;5069909;28;20028;-88
2024/01/26 02:54:37;;;;;;;17.98;3.70;;;12.60;99.90;;;;;;5069145;28;20062;-87
2024/01/26 02:57:03;;;;;;;20.33;3.72;;;12.70;99.90;;;;;;5081219;28;20046;-88
2024/01/26 02:59:28;;;;;;;27.60;4.60;;;12.80;99.90;;;;;;5091917;28;20009;-87
2024/01/26 03:01:54;;;;;;;15.15;3.58;;;;;;;;;;5100385;28;20012;-87
2024/01/26 03:04:20;;;;;;;16.92;4.15;;;;;;;;;;5107966;28;20553;-87
2024/01/26 03:06:47;;;;;;;14.82;3.50;;;12.80;99.90;;;;;;5090455;28;20502;-87
2024/01/26 03:09:12;;;;;;;21.15;3.88;;;13.10;99.90;;;;;;5088669;28;20194;-88
2024/01/26 03:11:39;;;;;;;24.00;4.20;;;12.80;99.90;;;;;;5090057;28;20019;-87
2024/01/26 03:14:08;;;;;;;22.65;3.47;;;13.10;99.90;;;;;;5089273;28;20028;-88
2024/01/26 03:16:34;;;;;;;15.77;3.78;;;12.80;99.90;;;;;;5075509;28;20024;-88
2024/01/26 03:19:00;;;;;;;15.50;3.20;;;13.30;99.90;;;;;;5069036;28;20030;-87
2024/01/26 03:21:26;;;;;;;14.23;3.33;;;13.30;99.90;;;;;;5067634;28;20028;-88
2024/01/26 03:23:52;;;;;;;16.00;3.08;;;12.80;99.90;;;;;;5069006;28;20021;-86
2024/01/26 03:26:18;;;;;;;14.30;3.25;;;13.10;99.90;;;;;;5068944;28;20032;-87
2024/01/26 03:28:44;;;;;;;10.75;3.03;;;;;;;;;;5068814;28;20120;-87
2024/01/26 03:31:09;;;;;;;15.70;3.90;;;12.80;99.90;;;;;;5069700;28;20025;-87
2024/01/26 03:33:35;;;;;;;13.40;2.90;;;13.00;99.90;;;;;;5067633;28;20028;-87
2024/01/26 03:36:01;;;;;;;9.35;2.90;;;13.20;99.90;;;;;;5066581;28;20024;-86
2024/01/26 03:38:26;;;;;;;13.15;2.92;;;12.80;99.90;;;;;;5080273;28;20500;-86
2024/01/26 03:40:52;;;;;;;14.90;2.70;;;13.20;99.90;;;;;;5088952;28;20016;-85
2024/01/26 03:43:18;;;;;;;12.63;2.88;;;13.20;99.90;;;;;;5089412;28;20040;-85
2024/01/26 03:45:44;;;;;;;10.43;2.80;;;12.80;99.90;;;;;;5093317;28;20016;-87
2024/01/26 03:48:09;;;;;;;8.85;2.20;;;12.80;99.90;;;;;;5093468;28;20032;-87
2024/01/26 03:50:35;;;;;;;10.63;2.85;;;12.90;99.90;;;;;;5091350;28;20055;-86
2024/01/26 03:53:00;;;;;;;8.32;2.70;;;12.90;99.90;;;;;;5092524;28;20501;-86
2024/01/26 03:55:26;;;;;;;10.20;2.80;;;13.10;99.90;;;;;;5091337;28;20023;-86
2024/01/26 03:57:51;;;;;;;6.43;2.50;;;12.80;99.90;;;;;;5090414;28;20036;-87
2024/01/26 04:00:17;;;;;;;6.75;2.30;;;13.10;99.90;;;;;;5071742;28;20032;-88
2024/01/26 04:02:43;;;;;;;8.85;2.50;;;12.90;99.90;;;;;;5071600;28;20420;-85
2024/01/26 04:05:09;;;;;;;10.90;3.03;;;13.10;99.90;;;;;;5072000;28;20091;-86
2024/01/26 04:07:35;;;;;;;8.23;2.13;;;12.80;99.90;;;;;;5071711;28;20413;-87
2024/01/26 04:10:01;;;;;;;8.02;2.60;;;13.10;99.90;;;;;;5071344;28;20021;-87
2024/01/26 04:12:26;;;;;;;7.47;2.30;;;13.10;99.90;;;;;;5072049;28;20477;-86
2024/01/26 04:14:52;;;;;;;6.85;2.67;;;12.80;99.90;;;;;;5071390;28;20025;-86
2024/01/26 04:17:17;;;;;;;5.82;2.30;;;13.20;99.90;;;;;;5071330;28;20024;-86
2024/01/26 04:19:43;;;;;;;8.30;2.30;;;12.80;99.90;;;;;;5072390;28;20502;-84
2024/01/26 04:22:09;;;;;;;6.45;2.13;;;13.10;99.90;;;;;;5072413;28;20059;-86
2024/01/26 04:24:35;;;;;;;5.88;2.50;;;12.80;99.90;;;;;;5071665;28;20032;-87
2024/01/26 04:27:01;;;;;;;5.68;2.53;;;12.80;99.90;;;;;;5071630;28;20017;-86
2024/01/26 04:29:26;;;;;;;6.05;1.88;;;12.90;99.90;;;;;;5071525;28;20043;-87
2024/01/26 04:31:52;;;;;;;5.25;2.08;;;12.90;99.90;;;;;;5071569;28;20052;-86
2024/01/26 04:34:18;;;;;;;6.50;2.30;;;12.80;99.90;;;;;;5070480;28;20024;-86
2024/01/26 04:36:47;;;;;;;5.70;2.10;;;13.10;99.90;;;;;;5085891;28;20027;-85
2024/01/26 04:39:14;;;;;;;4.35;2.00;;;12.90;99.90;;;;;;5092557;28;20097;-85
2024/01/26 04:41:40;;;;;;;4.22;1.83;;;12.90;99.90;;;;;;5091554;28;20123;-85
2024/01/26 04:44:06;;;;;;;4.47;1.92;;;12.90;99.90;;;;;;5091607;28;20455;-85
2024/01/26 04:46:32;;;;;;;3.45;1.80;;;12.90;99.90;;;;;;5091539;28;20103;-85
2024/01/26 04:48:57;;;;;;;4.95;2.00;;;12.90;99.90;;;;;;5086810;28;20092;-86
2024/01/26 04:51:23;;;;;;;4.72;1.90;;;13.30;99.90;;;;;;5071145;28;20064;-85
2024/01/26 04:53:49;;;;;;;1.70;1.60;;;13.10;99.90;;;;;;5071238;28;20063;-85
2024/01/26 04:56:14;;;;;;;6.28;1.63;;;12.90;99.90;;;;;;5071076;28;20028;-86
2024/01/26 04:58:40;;;;;;;2.83;1.52;;;13.00;99.90;;;;;;5078252;28;20617;-86
2024/01/26 05:01:06;;;;;;;3.30;1.60;;;12.90;99.90;;;;;;5090672;28;20028;-85
2024/01/26 05:03:32;;;;;;;2.58;1.50;;;13.00;99.90;;;;;;5090997;28;20039;-86
2024/01/26 05:05:58;;;;;;;4.05;1.60;;;;;;;;;;5086211;28;20024;-86
2024/01/26 05:08:24;;;;;;;5.13;2.03;;;12.90;99.90;;;;;;5070972;28;20031;-85
2024/01/26 05:10:50;;;;;;;5.03;2.35;;;13.10;99.90;;;;;;5070731;28;20021;-86
2024/01/26 05:13:15;;;;;;;4.22;1.67;;;13.00;99.90;;;;;;5071719;28;20066;-85
2024/01/26 05:15:41;;;;;;;2.83;1.80;;;12.80;99.90;;;;;;5070185;28;20111;-86
2024/01/26 05:18:08;;;;;;;11.75;2.08;;;12.90;99.90;;;;;;5070673;28;20029;-86
2024/01/26 05:20:34;;;;;;;4.28;2.28;;;12.90;99.90;;;;;;5070697;28;20059;-85
2024/01/26 05:22:59;;;;;;;3.50;1.65;;;13.30;99.90;;;;;;5070340;28;20056;-86
2024/01/26 05:25:25;;;;;;;2.92;1.35;;;12.90;99.90;;;;;;5070758;28;20507;-86
2024/01/26 05:27:50;;;;;;;1.85;1.38;;;13.00;99.90;;;;;;5070506;28;20028;-87
2024/01/26 05:30:16;;;;;;;3.20;1.38;;;12.90;99.90;;;;;;5069888;28;20063;-87
2024/01/26 05:32:43;;;;;;;2.78;1.55;;;12.90;99.90;;;;;;5071246;28;20039;-85
2024/01/26 05:35:09;;;;;;;3.08;1.30;;;13.30;99.90;;;;;;5070026;28;20504;-86
2024/01/26 05:37:35;;;;;;;3.72;1.42;;;12.90;99.90;;;;;;5068493;28;20033;-86
2024/01/26 05:40:08;;;;;;;3.15;1.70;;;13.50;99.90;;;;;;5070311;28;20021;-86
2024/01/26 05:42:33;;;;;;;2.72;1.52;;;13.00;99.90;;;;;;5070401;28;20036;-86
2024/01/26 05:45:02;;;;;;;4.35;1.67;;;13.10;99.90;;;;;;5070122;28;20028;-86
2024/01/26 05:47:28;;;;;;;4.57;1.50;;;13.20;99.90;;;;;;5069156;28;20457;-85
2024/01/26 05:49:53;;;;;;;3.60;1.60;;;13.10;99.90;;;;;;5070230;28;20520;-85
2024/01/26 05:52:19;;;;;;;2.55;1.38;;;12.90;99.90;;;;;;5069499;28;20055;-84
2024/01/26 05:54:44;;;;;;;2.03;1.67;;;12.90;99.90;;;;;;5070283;28;20507;-84
2024/01/26 05:57:10;;;;;;;4.50;1.52;;;13.00;99.90;;;;;;5075196;28;20028;-83
2024/01/26 05:59:38;;;;;;;3.30;1.58;;;12.90;99.90;;;;;;5079700;28;20039;-83
2024/01/26 06:02:04;;;;;;;;;;;13.10;99.90;;;;;;5083732;28;20033;-83
2024/01/26 06:04:31;;;;;;;1.85;1.20;;;12.80;99.90;;;;;;5082295;28;20421;-85
2024/01/26 06:06:57;;;;;;;2.40;1.40;;;12.80;99.90;;;;;;5069497;28;20078;-86
2024/01/26 06:09:23;;;;;;;4.68;1.50;;;12.70;99.90;;;;;;5072613;28;20044;-83
2024/01/26 06:11:48;;;;;;;1.70;1.58;;;12.90;99.90;;;;;;5070245;28;20063;-85
2024/01/26 06:14:14;;;;;;;4.80;1.65;;;12.80;99.90;;;;;;5069554;28;20082;-83
2024/01/26 06:16:39;;;;;;;4.03;1.30;;;12.80;99.90;;;;;;5069213;28;20437;-84
2024/01/26 06:19:05;;;;;;;3.15;1.50;;;12.80;99.90;;;;;;5062192;28;20033;-85
2024/01/26 06:21:31;;;;;;;1.40;1.30;;;12.80;99.90;;;;;;5052171;28;20039;-84
2024/01/26 06:23:56;;;;;;;3.75;1.60;;;12.80;99.90;;;;;;5068874;28;20032;-86
2024/01/26 06:26:25;;;;;;;1.58;1.30;;;12.70;99.90;;;;;;5068521;28;20101;-86
2024/01/26 06:28:51;;;;;;;2.15;1.30;;;12.60;99.90;;;;;;5069903;28;20025;-85
2024/01/26 06:31:16;;;;;;;2.25;1.63;;;12.70;99.90;;;;;;5069191;28;20082;-85
2024/01/26 06:33:42;;;;;;;1.73;1.30;;;12.70;99.90;;;;;;5068988;28;20412;-85
2024/01/26 06:36:07;;;;;;;1.40;1.30;;;12.80;99.90;;;;;;5068500;28;20055;-85
2024/01/26 06:38:33;;;;;;;1.25;1.20;;;12.70;99.90;;;;;;5067848;28;20028;-85
2024/01/26 06:40:59;;;;;;;1.50;1.40;;;12.70;99.90;;;;;;5067040;28;20118;-83
2024/01/26 06:43:25;;;;;;;1.20;1.10;;;12.70;99.90;;;;;;5068855;28;20024;-83
2024/01/26 06:45:50;;;;;;;1.30;1.20;;;12.70;99.90;;;;;;5069168;28;20039;-84
2024/01/26 06:48:16;;;;;;;0.90;0.90;;;12.40;99.90;;;;;;5069064;28;20020;-84
2024/01/26 06:50:42;;;;;;;1.30;1.20;;;12.50;99.90;;;;;;5068990;28;20021;-84
2024/01/26 06:53:09;;;;;;;1.75;1.23;;;12.40;99.90;;;;;;5068952;28;20032;-84
2024/01/26 06:55:34;;;;;;;1.80;1.13;;;12.40;99.90;;;;;;5069720;28;20099;-84
2024/01/26 06:58:00;;;;;;;2.47;1.30;;;12.40;99.90;;;;;;5061499;28;20105;-83
2024/01/26 07:00:27;;;;;;;3.13;1.10;;;12.50;99.90;;;;;;5056227;28;20032;-84
2024/01/26 07:02:53;;;;;;;1.33;1.00;;;12.50;99.90;;;;;;5059244;28;20044;-85
2024/01/26 07:05:18;;;;;;;1.40;1.00;;;12.40;99.90;;;;;;5063334;28;20047;-84
2024/01/26 07:07:44;;;;;;;2.65;0.90;;;12.40;99.90;;;;;;5066629;28;20025;-84
2024/01/26 07:10:10;;;;;;;1.05;0.90;;;12.50;99.90;;;;;;5067014;28;20025;-85
2024/01/26 07:12:35;;;;;;;2.60;1.10;;;12.50;99.90;;;;;;5067616;28;20100;-84
2024/01/26 07:15:01;;;;;;;6.75;1.13;;;12.20;99.90;;;;;;5067854;28;20036;-84
2024/01/26 07:17:27;;;;;;;4.35;0.95;;;11.90;99.90;;;;;;5067851;28;20032;-84
2024/01/26 07:19:52;;;;;;;9.15;1.63;;;11.50;99.90;;;;;;5072132;28;20043;-84
2024/01/26 07:22:18;;;;;;;11.82;2.60;;;11.30;99.90;;;;;;5071895;28;20078;-83
2024/01/26 07:24:43;;;;;;;5.85;1.08;;;11.40;99.90;;;;;;5071124;28;20270;-83
2024/01/26 07:27:10;;;;;;;4.55;1.23;;;;;;;;;;5072605;28;20032;-86
2024/01/26 07:29:35;;;;;;;9.02;2.00;;;11.00;99.90;;;;;;5070537;28;20048;-88
2024/01/26 07:32:01;;;;;;;7.28;1.85;;;10.90;99.90;;;;;;5061417;28;20396;-88
2024/01/26 07:34:26;;;;;;;11.10;2.83;;;10.90;99.90;;;;;;5072131;28;20020;-89
2024/01/26 07:36:52;;;;;;;10.48;1.58;;;10.00;99.90;;;;;;5072859;28;20021;-88
2024/01/26 07:39:19;;;;;;;11.35;1.63;;;10.90;99.90;;;;;;5072519;28;20102;-86
2024/01/26 07:41:45;;;;;;;5.80;1.60;;;10.80;99.90;;;;;;5070379;28;20119;-88
2024/01/26 07:44:10;;;;;;;8.07;1.73;;;11.00;99.90;;;;;;5070209;28;20116;-86
2024/01/26 07:46:38;;;;;;;6.50;1.83;;;11.10;99.90;;;;;;5072010;28;20029;-87
2024/01/26 07:49:04;;;;;;;7.50;1.38;;;11.30;99.90;;;;;;5070438;28;20048;-87
2024/01/26 07:51:30;;;;;;;6.68;1.75;;;;;;;;;;5071964;28;20484;-87
2024/01/26 07:53:56;;;;;;;10.35;2.25;;;;;;;;;;5071523;28;20017;-87
2024/01/26 07:56:22;;;;;;;10.20;1.58;;;;;;;;;;5072466;28;20401;-87
2024/01/26 07:58:48;;;;;;;10.27;2.13;;;;;;;;;;5071088;28;20021;-87
2024/01/26 08:01:14;;;;;;;5.53;1.30;;;;;;;;;;5070738;28;20044;-86
2024/01/26 08:03:40;;;;;;;9.63;1.75;;;;;;;;;;5070264;28;20041;-86
2024/01/26 08:06:06;;;;;;;7.03;1.65;;;;;;;;;;5070254;28;20035;-86
2024/01/26 08:08:32;;;;;;;11.57;2.53;;;;;;;;;;5071307;28;20028;-86
2024/01/26 08:10:59;;;;;;;8.55;1.95;;;;;;;;;;5070080;28;20473;-87
2024/01/26 08:13:26;;;;;;;12.13;2.00;;;;;;;;;;5071933;28;20021;-86
2024/01/26 08:15:52;;;;;;;9.20;1.63;;;;;;;;;;5071748;28;20033;-87
2024/01/26 08:18:18;;;;;;;5.13;1.50;;;;;;;;;;5071434;28;20100;-87
2024/01/26 08:20:44;;;;;;;9.90;1.75;;;;;;;;;;5071329;28;20170;-87
2024/01/26 08:23:10;;;;;;;9.43;1.88;;;;;;;;;;5071300;28;20112;-88
2024/01/26 08:25:36;;;;;;;10.63;2.08;;;;;;;;;;5069745;28;20028;-87
2024/01/26 08:28:02;;;;;;;13.93;2.40;;;;;;;;;;5070385;28;20023;-87
2024/01/26 08:30:28;;;;;;;17.15;1.95;;;;;;;;;;5068993;28;20025;-86
2024/01/26 08:32:54;;;;;;;8.65;1.98;;;;;;;;;;5071070;28;20131;-87
2024/01/26 08:35:20;;;;;;;11.52;2.40;;;;;;;;;;5071061;28;20463;-87
2024/01/26 08:37:46;;;;;;;12.07;2.30;;;;;;;;;;5069430;28;20107;-86
2024/01/26 08:40:13;;;;;;;8.73;2.42;;;;;;;;;;5078823;28;20475;-87
2024/01/26 08:42:39;;;;;;;7.32;2.08;;;;;;;;;;5083259;28;20039;-87
2024/01/26 08:45:06;;;;;;;10.25;1.90;;;;;;;;;;5070850;28;20385;-88
2024/01/26 08:47:32;;;;;;;11.45;2.13;;;;;;;;;;5070501;28;20145;-86
2024/01/26 08:49:58;;;;;;;7.40;1.80;;;;;;;;;;5071433;28;20121;-87
2024/01/26 08:52:24;;;;;;;11.20;1.95;;;;;;;;;;5071125;28;20046;-87
2024/01/26 08:54:50;;;;;;;10.23;2.00;;;;;;;;;;5087307;28;20360;-84
2024/01/26 08:57:16;;;;;;;10.45;2.33;;;;;;;;;;5090761;28;20077;-85
2024/01/26 08:59:44;;;;;;;11.55;2.95;;;11.60;99.90;;;;;;5092311;28;20036;-84
2024/01/26 09:02:10;;;;;;;11.30;1.95;;;;;;;;;;5079323;28;20072;-84
2024/01/26 09:04:36;;;;;;;10.93;2.30;;;;;;;;;;5074600;28;20040;-85
2024/01/26 09:07:03;;;;;;;14.88;2.35;;;;;;;;;;5071402;28;20448;-83
2024/01/26 09:09:29;;;;;;;13.48;2.58;;;;;;;;;;5070950;28;20124;-84
2024/01/26 09:11:57;;;;;;;9.98;1.73;;;;;;;;;;5070422;28;20032;-84
2024/01/26 09:14:23;;;;;;;17.40;2.78;;;;;;;;;;5069034;28;20166;-84
2024/01/26 09:16:52;;;;;;;13.13;2.35;;;11.60;99.90;;;;;;5069817;28;20348;-83
2024/01/26 09:19:19;;;;;;;17.02;2.78;;;;;;;;;;5070076;28;20025;-83
2024/01/26 09:21:45;;;;;;;12.07;2.95;;;;;;;;;;5069867;28;20492;-84
2024/01/26 09:24:11;;;;;;;15.02;2.63;;;;;;;;;;5070161;28;20036;-84
2024/01/26 09:26:39;;;;;;;15.95;2.45;;;;;;;;;;5069717;28;20028;-83
2024/01/26 09:29:05;;;;;;;13.25;2.85;;;;;;;;;;5069471;28;20032;-84
2024/01/26 09:31:31;;;;;;;22.42;3.22;;;;;;;;;;5069948;28;20078;-83
2024/01/26 09:33:57;;;;;;;18.85;2.63;;;;;;;;;;5070737;28;20024;-85
2024/01/26 09:36:23;;;;;;;12.73;2.30;;;;;;;;;;5069929;28;20020;-85
2024/01/26 09:38:49;;;;;;;21.17;3.28;;;11.60;99.90;;;;;;5068574;28;20031;-84
2024/01/26 09:41:15;;;;;;;9.82;2.00;;;;;;;;;;5069292;28;20459;-83
2024/01/26 09:43:41;;;;;;;17.45;2.88;;;;;;;;;;5068471;28;20064;-83
2024/01/26 09:46:08;;;;;;;11.90;2.00;;;;;;;;;;5069692;28;20029;-83
2024/01/26 09:48:34;;;;;;;17.70;3.13;;;;;;;;;;5069661;28;20039;-84
2024/01/26 09:51:03;;;;;;;17.83;3.13;;;11.60;99.90;;;;;;5070443;28;20031;-84
2024/01/26 09:53:31;;;;;;;15.00;2.72;;;11.60;99.90;;;;;;5070339;28;20429;-84
2024/01/26 09:55:57;;;;;;;16.90;2.72;;;;;;;;;;5070609;28;20051;-84
2024/01/26 09:58:23;;;;;;;24.52;3.85;;;;;;;;;;5069088;28;20021;-84
2024/01/26 10:00:53;;;;;;;21.23;3.05;;;11.80;99.90;;;;;;5069193;28;20040;-84
2024/01/26 10:03:22;;;;;;;13.10;2.75;;;;;;;;;;5069345;28;20025;-84
2024/01/26 10:05:48;;;;;;;18.15;2.55;;;;;;;;;;5069214;28;20107;-85
2024/01/26 10:08:14;;;;;;;13.57;2.83;;;;;;;;;;5068981;28;20109;-84
2024/01/26 10:10:41;;;;;;;21.70;2.80;;;;;;;;;;5069472;28;20481;-85
2024/01/26 10:13:07;;;;;;;19.77;3.08;;;;;;;;;;5067949;28;20107;-84
2024/01/26 10:15:33;;;;;;;17.98;3.28;;;;;;;;;;5069009;28;20028;-84
2024/01/26 10:18:00;;;;;;;18.30;2.40;;;11.90;99.90;;;;;;5069856;28;20400;-85
2024/01/26 10:20:26;;;;;;;16.67;2.92;;;;;;;;;;5069110;28;20021;-84
2024/01/26 10:22:53;;;;;;;14.20;2.90;;;;;;;;;;5068613;28;20237;-83
2024/01/26 10:25:19;;;;;;;21.63;3.60;;;;;;;;;;5067866;28;20055;-85
2024/01/26 10:27:45;;;;;;;15.63;3.13;;;;;;;;;;5068789;28;20061;-85
2024/01/26 10:30:11;;;;;;;17.95;3.25;;;;;;;;;;5068208;28;20046;-83
2024/01/26 10:32:38;;;;;;;16.10;3.10;;;;;;;;;;5067444;28;20550;-83
2024/01/26 10:35:05;;;;;;;24.10;3.95;;;11.90;99.90;;;;;;5067202;28;20029;-84
2024/01/26 10:37:32;;;;;;;17.95;3.33;;;11.80;99.90;;;;;;5068117;28;20020;-85
2024/01/26 10:40:00;;;;;;;19.35;3.00;;;11.60;99.90;;;;;;5069545;28;20423;-84
2024/01/26 10:42:29;;;;;;;17.52;2.85;;;;;;;;;;5068734;28;20040;-83
2024/01/26 10:44:55;;;;;;;15.95;3.10;;;;;;;;;;5068774;28;20024;-85
2024/01/26 10:47:21;;;;;;;15.82;2.88;;;;;;;;;;5068670;28;20081;-84
2024/01/26 10:49:51;;;;;;;14.55;3.25;;;;;;;;;;5068751;28;20062;-84
2024/01/26 10:52:20;;;;;;;15.82;2.78;;;11.10;99.90;;;;;;5068154;28;20036;-83
2024/01/26 10:54:50;;;;;;;19.00;2.97;;;11.00;99.90;;;;;;5067911;28;20024;-82
2024/01/26 10:57:17;;;;;;;24.10;3.65;;;11.00;99.90;;;;;;5068667;28;20040;-83
2024/01/26 10:59:43;;;;;;;17.58;2.95;;;11.10;99.90;;;;;;5086862;28;20027;-82
2024/01/26 11:02:36;;;;;;;22.15;3.85;;;11.20;99.90;;;;;;5088613;28;20020;-84
2024/01/26 11:05:03;;;;;;;18.98;3.03;;;;;;;;;;5089286;28;20027;-83
2024/01/26 11:07:31;;;;;;;23.48;4.32;;;11.30;99.90;;;;;;5088367;28;20020;-83
2024/01/26 11:10:08;;;;;;;12.18;3.00;;;11.30;99.90;;;;;;5088332;28;20506;-83
2024/01/26 11:12:34;;;;;;;20.98;3.13;;;11.30;99.90;;;;;;5089019;28;20036;-83
2024/01/26 11:15:10;;;;;;;21.85;3.10;;;11.30;99.90;;;;;;5088242;28;20017;-83
2024/01/26 11:17:42;;;;;;;27.73;3.50;;;11.30;99.90;;;;;;5083244;28;20021;-83
2024/01/26 11:20:13;;;;;;;18.60;3.55;;;11.30;99.90;;;;;;5068292;28;20029;-83
2024/01/26 11:22:40;;;;;;;15.82;3.53;;;;;;;;;;5068019;28;20040;-83
2024/01/26 11:25:06;;;;;;;17.63;2.88;;;;;;;;;;5067880;28;20024;-83
2024/01/26 11:27:32;;;;;;;22.15;3.13;;;;;;;;;;5067388;28;20052;-84
2024/01/26 11:29:58;;;;;;;20.35;3.72;;;;;;;;;;5068562;28;20024;-84
2024/01/26 11:32:24;;;;;;;12.55;2.50;;;;;;;;;;5070719;28;20095;-83
2024/01/26 11:35:02;;;;;;;17.98;2.90;;;11.30;99.90;;;;;;5068672;28;20540;-84
2024/01/26 11:37:29;;;;;;;13.98;2.47;;;;;;;;;;5068205;28;20028;-84
2024/01/26 11:39:55;;;;;;;13.35;3.38;;;;;;;;;;5068088;28;20488;-83
2024/01/26 11:42:23;;;;;;;15.90;2.33;;;;;;;;;;5062566;28;20037;-83
2024/01/26 11:45:07;;;;;;;16.95;2.58;;;11.10;99.90;;;;;;5048347;28;20067;-83
2024/01/26 11:47:33;;;;;;;11.48;2.30;;;;;;;;;;5067335;28;20063;-84
2024/01/26 11:50:00;;;;;;;19.70;3.00;;;;;;;;;;5068003;28;20056;-85
2024/01/26 11:52:26;;;;;;;17.67;2.97;;;;;;;;;;5066664;28;20273;-84
2024/01/26 11:54:52;;;;;;;17.80;3.15;;;;;;;;;;5068253;28;20024;-84
2024/01/26 11:57:18;;;;;;;15.07;3.05;;;11.10;99.90;;;;;;5067793;28;20542;-85
2024/01/26 11:59:44;;;;;;;14.40;3.78;;;;;;;;;;5074789;28;20557;-85
2024/01/26 12:02:10;;;;;;;17.45;2.67;;;;;;;;;;5068669;28;20032;-85
2024/01/26 12:04:36;;;;;;;14.00;3.13;;;;;;;;;;5070746;28;20389;-85
2024/01/26 12:07:02;;;;;;;12.15;2.15;;;;;;;;;;5072862;28;20039;-84
2024/01/26 12:09:28;;;;;;;14.65;2.20;;;;;;;;;;5071894;28;20026;-85
2024/01/26 12:11:54;;;;;;;15.73;2.88;;;;;;;;;;5071473;28;20033;-85
2024/01/26 12:14:21;;;;;;;17.90;2.20;;;;;;;;;;5071369;28;20052;-84
2024/01/26 12:16:46;;;;;;;15.35;2.60;;;;;;;;;;5071291;28;20503;-84
2024/01/26 12:19:12;;;;;;;10.73;1.88;;;;;;;;;;5079626;28;20020;-85
2024/01/26 12:21:38;;;;;;;17.38;3.08;;;;;;;;;;5091266;28;20369;-84
2024/01/26 12:24:09;;;;;;;14.63;2.80;;;11.20;99.90;;;;;;5073652;28;20028;-84
2024/01/26 12:26:35;;;;;;;10.65;2.20;;;11.30;99.90;;;;;;5068120;28;20028;-85
2024/01/26 12:29:01;;;;;;;19.70;2.92;;;;;;;;;;5071224;28;20222;-85
2024/01/26 12:31:28;;;;;;;19.75;2.97;;;11.20;99.90;;;;;;5071379;28;20021;-84
2024/01/26 12:33:54;;;;;;;16.80;2.53;;;;;;;;;;5077013;28;20392;-84
2024/01/26 12:36:20;;;;;;;13.63;2.67;;;;;;;;;;5091614;28;20112;-84
2024/01/26 12:38:46;;;;;;;12.85;2.28;;;11.40;99.90;;;;;;5091632;28;20059;-85
2024/01/26 12:41:11;;;;;;;11.27;2.58;;;12.20;99.90;;;;;;5091553;28;20019;-85
2024/01/26 12:43:37;;;;;;;16.02;2.90;;;12.00;99.90;;;;;;5085864;28;20047;-85
2024/01/26 12:46:04;;;;;;;14.68;2.35;;;11.30;99.90;;;;;;5070624;28;20438;-84
2024/01/26 12:48:30;;;;;;;16.17;2.80;;;11.30;99.90;;;;;;5070724;28;20484;-85
2024/01/26 12:51:00;;;;;;;19.40;2.47;;;;;;;;;;5071076;28;20104;-85
2024/01/26 12:53:26;;;;;;;16.75;3.05;;;;;;;;;;5071036;28;20075;-85
2024/01/26 12:55:52;;;;;;;17.08;3.00;;;;;;;;;;5070555;28;20400;-84
2024/01/26 12:58:18;;;;;;;15.55;2.97;;;11.10;99.90;;;;;;5070709;28;20039;-84
2024/01/26 13:00:44;;;;;;;14.65;2.60;;;;;;;;;;5069959;28;20032;-85
2024/01/26 13:03:10;;;;;;;13.95;2.63;;;;;;;;;;5070549;28;20047;-86
2024/01/26 13:05:36;;;;;;;24.83;2.60;;;11.10;99.90;;;;;;5071496;28;20066;-85
2024/01/26 13:08:01;;;;;;;19.23;3.10;;;11.50;99.90;;;;;;5070724;28;20028;-84
2024/01/26 13:10:27;;;;;;;19.42;2.90;;;;;;;;;;5070445;28;20055;-85